This is the latest recevied weather packets stored in our database for station/object DB0PET-13. If no packets are shown the sender has not sent any weather packets the latest 1 day(s).
| Time | Temp. | Humidity | Pressure | Rain* | Wind** | Luminosity | Snow |
|---|---|---|---|---|---|---|---|
| 1778008093 | 12.22° C | 99% | 1011.8 hPa | 3.81 mm | 0 m/s | - | - |
| 1778007130 | 12.78° C | 99% | 1011.6 hPa | 3.56 mm | 0 m/s | - | - |
| 1778006169 | 12.78° C | 99% | 1011.6 hPa | 3.05 mm | 0.89 m/s, 235° | - | - |
| 1778005210 | 12.78° C | 99% | 1011.7 hPa | 5.84 mm | 0.89 m/s, 228° | - | - |
| 1778004250 | 12.78° C | 99% | 1011.7 hPa | 8.38 mm | 0.45 m/s, 251° | - | - |
| 1778003293 | 13.33° C | 99% | 1011.6 hPa | 7.37 mm | 0.89 m/s, 241° | - | - |
| 1778002331 | 13.33° C | 97% | 1011.7 hPa | 6.86 mm | 0.45 m/s, 280° | - | - |
| 1778001369 | 13.89° C | 94% | 1011.7 hPa | 2.03 mm | 1.34 m/s, 236° | - | - |
| 1778000408 | 15° C | 90% | 1011.6 hPa | 0 mm | 0.89 m/s, 283° | - | - |
| 1777999450 | 15.56° C | 84% | 1011.3 hPa | 0 mm | 0.89 m/s, 286° | - | - |
| 1777998549 | 16.67° C | 78% | 1011.3 hPa | 0 mm | 0.45 m/s, 289° | - | - |
| 1777998492 | 16.67° C | 78% | 1011.3 hPa | 0 mm | 0.45 m/s, 289° | - | - |
| 1777997528 | 17.22° C | 75% | 1011.2 hPa | 0 mm | 0.45 m/s, 295° | - | - |
| 1777996568 | 17.78° C | 70% | 1011.3 hPa | 0 mm | 0.45 m/s, 343° | - | - |
| 1777995610 | 17.78° C | 69% | 1011.3 hPa | 0 mm | 0.45 m/s, 339° | - | - |
| 1777994649 | 17.78° C | 70% | 1011.4 hPa | 0 mm | 1.34 m/s, 18° | - | - |
| 1777993691 | 18.33° C | 69% | 1011.4 hPa | 0 mm | 0.45 m/s, 348° | - | - |
| 1777992728 | 18.33° C | 71% | 1011.6 hPa | 0 mm | 0.45 m/s, 7° | - | - |
| 1777991769 | 17.78° C | 72% | 1011.6 hPa | 0 mm | 1.34 m/s, 352° | - | - |
| 1777990811 | 18.33° C | 67% | 1011.7 hPa | 0 mm | 0.89 m/s, 17° | - | - |
| 1777989850 | 18.89° C | 66% | 1011.9 hPa | 0 mm | 0.89 m/s, 33° | - | - |
| 1777988889 | 18.89° C | 63% | 1011.9 hPa | 0 mm | 0.89 m/s, 64° | - | - |
| 1777987928 | 20° C | 61% | 1012 hPa | 0 mm | 1.34 m/s, 124° | - | - |
| 1777986969 | 20° C | 63% | 1012.2 hPa | 0 mm | 0.89 m/s, 119° | - | - |
| 1777986009 | 18.89° C | 66% | 1012.2 hPa | 0 mm | 1.34 m/s, 98° | - | - |
* Rain latest hour (hover to see other rain measurements)
** Current wind speed in m/s (hover to see current wind gust speed)